createdAt,value
2018-03-17T00:00:58.394Z,99675.23
2018-03-17T00:03:25.840Z,99679.48
2018-03-17T00:05:53.332Z,99677.11
2018-03-17T00:08:20.804Z,99684.06
2018-03-17T00:10:48.286Z,99686.74
2018-03-17T00:13:15.788Z,99675.95
2018-03-17T00:15:43.346Z,99681.28
2018-03-17T00:18:10.811Z,99677.09
2018-03-17T00:20:38.264Z,99677.17
2018-03-17T00:23:05.793Z,99683.53
2018-03-17T00:25:33.290Z,99688.92
2018-03-17T00:28:00.747Z,99684.50
2018-03-17T00:30:28.348Z,99692.80
2018-03-17T00:32:55.858Z,99680.83
2018-03-17T00:35:23.358Z,99676.78
2018-03-17T00:37:50.843Z,99681.22
2018-03-17T00:40:18.305Z,99682.61
2018-03-17T00:42:45.790Z,99687.63
2018-03-17T00:45:13.299Z,99689.57
2018-03-17T00:47:40.781Z,99699.66
2018-03-17T00:50:08.377Z,99697.42
2018-03-17T00:52:35.837Z,99704.52
2018-03-17T00:55:03.323Z,99700.28
2018-03-17T00:57:30.879Z,99695.83
2018-03-17T00:59:58.307Z,99704.42
2018-03-17T01:02:25.791Z,99698.21
2018-03-17T01:04:53.229Z,99703.01
2018-03-17T01:07:20.731Z,99713.02
2018-03-17T01:09:48.202Z,99710.08
2018-03-17T01:12:15.701Z,99704.72
2018-03-17T01:14:43.185Z,99706.66
2018-03-17T01:17:10.667Z,99713.91
2018-03-17T01:19:38.163Z,99713.23
2018-03-17T01:22:06.189Z,99707.73
2018-03-17T01:24:33.649Z,99715.88
2018-03-17T01:27:01.168Z,99715.39
2018-03-17T01:29:28.635Z,99714.98
2018-03-17T01:31:56.087Z,99717.18
2018-03-17T01:34:23.557Z,99720.86
2018-03-17T01:36:51.041Z,99714.50
2018-03-17T01:39:18.513Z,99715.20
2018-03-17T01:41:45.981Z,99710.78
2018-03-17T01:44:13.433Z,99716.31
2018-03-17T01:46:40.875Z,99721.81
2018-03-17T01:49:08.897Z,99709.02
2018-03-17T01:51:37.201Z,99715.97
2018-03-17T01:54:16.415Z,99726.93
2018-03-17T01:56:43.881Z,99719.42
2018-03-17T01:59:14.087Z,99706.91
2018-03-17T02:01:41.543Z,99710.84
2018-03-17T02:07:01.801Z,99716.42
2018-03-17T02:09:29.282Z,99714.02
2018-03-17T02:11:56.729Z,99705.56
2018-03-17T02:14:24.230Z,99705.38
2018-03-17T02:16:51.734Z,99701.16
2018-03-17T02:19:19.187Z,99696.17
2018-03-17T02:21:46.663Z,99701.48
2018-03-17T02:24:14.252Z,99688.93
2018-03-17T02:26:42.604Z,99690.34
2018-03-17T02:29:10.060Z,99685.69
2018-03-17T02:31:37.515Z,99687.20
2018-03-17T02:34:05.050Z,99686.06
2018-03-17T02:36:32.519Z,99693.03
2018-03-17T02:38:59.998Z,99695.44
2018-03-17T02:41:27.482Z,99699.45
2018-03-17T02:43:54.939Z,99698.95
2018-03-17T02:46:22.428Z,99699.49
2018-03-17T02:48:49.925Z,99703.52
2018-03-17T02:51:17.443Z,99701.30
2018-03-17T02:53:44.915Z,99699.20
2018-03-17T02:56:12.408Z,99702.09
2018-03-17T02:58:39.918Z,99717.42
2018-03-17T03:01:07.387Z,99704.93
2018-03-17T03:03:34.839Z,99714.19
2018-03-17T03:06:02.356Z,99719.32
2018-03-17T03:08:29.804Z,99726.63
2018-03-17T03:10:57.275Z,99718.04
2018-03-17T03:13:24.701Z,99733.66
2018-03-17T03:15:52.239Z,99719.97
2018-03-17T03:18:19.815Z,99732.98
2018-03-17T03:20:47.263Z,99735.80
2018-03-17T03:23:15.044Z,99740.80
2018-03-17T03:25:42.525Z,99738.80
2018-03-17T03:28:09.978Z,99736.59
2018-03-17T03:30:37.459Z,99732.89
2018-03-17T03:33:04.959Z,99732.68
2018-03-17T03:35:32.415Z,99734.58
2018-03-17T03:37:59.905Z,99744.85
2018-03-17T03:40:27.415Z,99732.68
2018-03-17T03:42:54.859Z,99733.93
2018-03-17T03:45:22.391Z,99733.14
2018-03-17T03:47:49.881Z,99742.72
2018-03-17T03:50:17.338Z,99743.47
2018-03-17T03:52:44.743Z,99734.78
2018-03-17T03:55:12.247Z,99737.47
2018-03-17T03:57:39.675Z,99737.77
2018-03-17T04:00:07.107Z,99729.78
2018-03-17T04:02:34.637Z,99743.30
2018-03-17T04:05:02.075Z,99747.67
2018-03-17T04:07:29.531Z,99733.50
2018-03-17T04:09:56.955Z,99733.18
2018-03-17T04:12:24.420Z,99733.70
2018-03-17T04:14:51.846Z,99736.50
2018-03-17T04:17:19.305Z,99742.28
2018-03-17T04:19:46.737Z,99742.83
2018-03-17T04:22:14.189Z,99745.34
2018-03-17T04:24:41.629Z,99739.03
2018-03-17T04:27:09.085Z,99746.94
2018-03-17T04:29:36.539Z,99747.77
2018-03-17T04:32:04.037Z,99746.05
2018-03-17T04:34:31.492Z,99748.95
2018-03-17T04:36:58.963Z,99751.77
2018-03-17T04:39:26.430Z,99754.05
2018-03-17T04:41:53.928Z,99750.98
2018-03-17T04:44:21.387Z,99747.40
2018-03-17T04:46:48.846Z,99744.11
2018-03-17T04:49:16.415Z,99741.04
2018-03-17T04:51:43.774Z,99749.03
2018-03-17T04:54:25.532Z,99741.55
2018-03-17T04:56:52.963Z,99751.39
2018-03-17T04:59:20.478Z,99757.97
2018-03-17T05:01:47.926Z,99759.78
2018-03-17T05:04:15.387Z,99756.67
2018-03-17T05:06:42.843Z,99757.50
2018-03-17T05:09:10.295Z,99767.88
2018-03-17T05:11:37.776Z,99763.89
2018-03-17T05:14:05.227Z,99772.48
2018-03-17T05:16:32.668Z,99776.87
2018-03-17T05:19:00.175Z,99770.28
2018-03-17T05:21:31.986Z,99780.86
2018-03-17T05:23:59.472Z,99784.18
2018-03-17T05:26:26.922Z,99792.25
2018-03-17T05:28:54.356Z,99784.78
2018-03-17T05:31:21.814Z,99789.08
2018-03-17T05:33:49.261Z,99791.16
2018-03-17T05:36:17.443Z,99783.38
2018-03-17T05:38:44.899Z,99791.47
2018-03-17T05:41:12.325Z,99792.45
2018-03-17T05:43:39.830Z,99789.17
2018-03-17T05:46:07.280Z,99796.45
2018-03-17T05:48:34.732Z,99801.13
2018-03-17T05:51:02.204Z,99800.75
2018-03-17T05:53:29.643Z,99789.55
2018-03-17T05:55:57.085Z,99791.45
2018-03-17T05:58:24.550Z,99791.05
2018-03-17T06:00:52.006Z,99795.45
2018-03-17T06:03:19.450Z,99801.03
2018-03-17T06:08:39.919Z,99806.92
2018-03-17T06:11:07.367Z,99809.72
2018-03-17T06:13:34.800Z,99807.52
2018-03-17T06:16:02.291Z,99807.03
2018-03-17T06:18:29.780Z,99811.61
2018-03-17T06:20:57.210Z,99811.13
2018-03-17T06:23:24.690Z,99805.22
2018-03-17T06:25:52.134Z,99810.72
2018-03-17T06:28:19.652Z,99816.00
2018-03-17T06:30:47.152Z,99818.30
2018-03-17T06:33:14.558Z,99821.50
2018-03-17T06:35:42.016Z,99811.42
2018-03-17T06:38:09.512Z,99815.39
2018-03-17T06:40:36.974Z,99818.39
2018-03-17T06:43:04.424Z,99819.89
2018-03-17T06:45:31.866Z,99813.92
2018-03-17T06:47:59.322Z,99814.51
2018-03-17T06:50:26.818Z,99805.53
2018-03-17T06:52:54.279Z,99811.03
2018-03-17T06:55:21.777Z,99811.03
2018-03-17T06:57:49.216Z,99801.65
2018-03-17T07:00:16.749Z,99822.30
2018-03-17T07:02:44.970Z,99814.31
2018-03-17T07:05:12.462Z,99816.59
2018-03-17T07:07:39.952Z,99822.20
2018-03-17T07:10:07.394Z,99827.17
2018-03-17T07:12:34.865Z,99829.88
2018-03-17T07:15:02.337Z,99827.17
2018-03-17T07:17:29.846Z,99823.68
2018-03-17T07:19:57.300Z,99829.48
2018-03-17T07:22:24.747Z,99832.77
2018-03-17T07:24:52.198Z,99834.07
2018-03-17T07:27:19.671Z,99841.07
2018-03-17T07:29:47.228Z,99840.36
2018-03-17T07:32:14.664Z,99838.64
2018-03-17T07:34:42.118Z,99840.36
2018-03-17T07:37:09.624Z,99836.97
2018-03-17T07:39:37.056Z,99832.87
2018-03-17T07:42:04.632Z,99842.16
2018-03-17T07:44:32.077Z,99824.67
2018-03-17T07:46:59.526Z,99846.83
2018-03-17T07:49:27.009Z,99833.17
2018-03-17T07:51:54.452Z,99847.55
2018-03-17T07:54:21.955Z,99830.67
2018-03-17T07:56:49.398Z,99836.28
2018-03-17T07:59:16.881Z,99834.67
2018-03-17T08:01:44.348Z,99832.48
2018-03-17T08:04:11.788Z,99818.40
2018-03-17T08:06:39.264Z,99840.56
2018-03-17T08:09:07.162Z,99822.67
2018-03-17T08:11:34.597Z,99848.73
2018-03-17T08:14:02.106Z,99821.48
2018-03-17T08:16:29.580Z,99825.45
2018-03-17T08:18:57.054Z,99816.30
2018-03-17T08:21:24.512Z,99830.27
2018-03-17T08:23:51.968Z,99828.86
2018-03-17T08:26:19.428Z,99829.73
2018-03-17T08:28:46.913Z,99828.43
2018-03-17T08:31:15.332Z,99841.41
2018-03-17T08:33:42.793Z,99848.30
2018-03-17T08:36:10.323Z,99835.11
2018-03-17T08:38:37.790Z,99839.13
2018-03-17T08:41:05.280Z,99835.60
2018-03-17T08:43:32.905Z,99840.11
2018-03-17T08:46:00.362Z,99842.31
2018-03-17T08:48:27.818Z,99839.64
2018-03-17T08:50:55.312Z,99837.04
2018-03-17T08:53:22.868Z,99844.93
2018-03-17T08:55:50.360Z,99851.20
2018-03-17T08:58:17.817Z,99844.11
2018-03-17T09:00:45.339Z,99841.61
2018-03-17T09:03:12.826Z,99835.41
2018-03-17T09:05:40.265Z,99830.02
2018-03-17T09:08:07.747Z,99835.11
2018-03-17T09:10:35.220Z,99830.32
2018-03-17T09:13:02.699Z,99811.25
2018-03-17T09:15:30.245Z,99818.16
2018-03-17T09:17:57.781Z,99819.34
2018-03-17T09:20:25.296Z,99820.94
2018-03-17T09:22:52.796Z,99809.24
2018-03-17T09:25:20.304Z,99816.42
2018-03-17T09:27:47.797Z,99817.22
2018-03-17T09:30:15.271Z,99812.31
2018-03-17T09:32:42.840Z,99806.23
2018-03-17T09:35:10.376Z,99824.33
2018-03-17T09:37:37.843Z,99829.00
2018-03-17T09:40:05.370Z,99807.84
2018-03-17T09:42:32.840Z,99807.37
2018-03-17T09:45:00.320Z,99816.75
2018-03-17T09:47:27.875Z,99825.22
2018-03-17T09:49:55.496Z,99820.93
2018-03-17T09:52:23.026Z,99817.41
2018-03-17T09:55:00.161Z,99820.52
2018-03-17T09:57:27.645Z,99817.70
2018-03-17T09:59:55.147Z,99831.09
2018-03-17T10:02:22.619Z,99829.28
2018-03-17T10:04:55.042Z,99824.08
2018-03-17T10:07:22.544Z,99835.66
2018-03-17T10:09:50.052Z,99832.45
2018-03-17T10:12:17.550Z,99838.33
2018-03-17T10:14:45.066Z,99837.70
2018-03-17T10:17:12.558Z,99841.43
2018-03-17T10:19:40.027Z,99844.30
2018-03-17T10:22:08.348Z,99844.95
2018-03-17T10:24:35.816Z,99839.16
2018-03-17T10:27:03.324Z,99834.58
2018-03-17T10:29:30.815Z,99840.27
2018-03-17T10:31:58.252Z,99830.97
2018-03-17T10:34:25.774Z,99828.98
2018-03-17T10:36:53.244Z,99829.08
2018-03-17T10:39:20.743Z,99830.19
2018-03-17T10:41:48.230Z,99834.17
2018-03-17T10:44:15.690Z,99832.95
2018-03-17T10:46:43.171Z,99825.85
2018-03-17T10:49:10.816Z,99819.52
2018-03-17T10:51:38.574Z,99814.91
2018-03-17T10:54:06.058Z,99825.40
2018-03-17T10:56:33.599Z,99826.47
2018-03-17T10:59:01.081Z,99810.87
2018-03-17T11:01:28.576Z,99813.83
2018-03-17T11:03:56.042Z,99803.72
2018-03-17T11:06:23.524Z,99809.41
2018-03-17T11:08:51.016Z,99804.53
2018-03-17T11:11:19.390Z,99804.64
2018-03-17T11:13:46.872Z,99808.41
2018-03-17T11:16:14.341Z,99810.61
2018-03-17T11:18:41.776Z,99801.79
2018-03-17T11:21:09.224Z,99797.84
2018-03-17T11:23:36.711Z,99805.11
2018-03-17T11:26:04.143Z,99813.05
2018-03-17T11:28:31.705Z,99819.34
2018-03-17T11:30:59.126Z,99816.30
2018-03-17T11:33:26.595Z,99808.11
2018-03-17T11:35:54.081Z,99811.13
2018-03-17T11:38:21.516Z,99807.95
2018-03-17T11:40:48.976Z,99811.85
2018-03-17T11:43:16.422Z,99810.86
2018-03-17T11:45:43.897Z,99803.34
2018-03-17T11:48:11.447Z,99800.48
2018-03-17T11:50:38.895Z,99805.95
2018-03-17T11:53:06.410Z,99807.94
2018-03-17T11:55:33.852Z,99801.45
2018-03-17T11:58:01.304Z,99792.38
2018-03-17T12:00:28.794Z,99801.95
2018-03-17T12:02:56.307Z,99798.48
2018-03-17T12:05:23.751Z,99785.98
2018-03-17T12:07:51.223Z,99792.08
2018-03-17T12:10:18.704Z,99792.66
2018-03-17T12:12:46.148Z,99798.64
2018-03-17T12:15:13.616Z,99798.82
2018-03-17T12:17:41.157Z,99787.08
2018-03-17T12:20:08.689Z,99791.78
2018-03-17T12:22:36.153Z,99794.57
2018-03-17T12:25:13.260Z,99798.66
2018-03-17T12:27:40.806Z,99796.08
2018-03-17T12:30:08.272Z,99789.48
2018-03-17T12:32:35.727Z,99795.09
2018-03-17T12:35:03.188Z,99799.41
2018-03-17T12:37:30.668Z,99787.30
2018-03-17T12:39:59.026Z,99790.30
2018-03-17T12:42:26.530Z,99789.79
2018-03-17T12:44:54.038Z,99791.71
2018-03-17T12:47:21.499Z,99792.69
2018-03-17T12:49:49.007Z,99788.19
2018-03-17T12:52:16.564Z,99798.73
2018-03-17T12:54:44.055Z,99781.73
2018-03-17T12:57:11.581Z,99777.45
2018-03-17T12:59:39.099Z,99779.01
2018-03-17T13:02:06.557Z,99767.91
2018-03-17T13:04:34.055Z,99769.59
2018-03-17T13:07:01.613Z,99767.58
2018-03-17T13:09:29.070Z,99767.15
2018-03-17T13:11:56.549Z,99770.72
2018-03-17T13:14:24.017Z,99774.48
2018-03-17T13:16:51.518Z,99778.00
2018-03-17T13:19:30.849Z,99780.53
2018-03-17T13:21:58.545Z,99771.72
2018-03-17T13:24:31.255Z,99770.98
2018-03-17T13:27:10.587Z,99771.39
2018-03-17T13:29:38.075Z,99761.91
2018-03-17T13:32:06.480Z,99764.58
2018-03-17T13:37:39.108Z,99775.13
2018-03-17T13:40:18.215Z,99769.31
2018-03-17T13:42:45.685Z,99772.52
2018-03-17T13:45:13.161Z,99770.22
2018-03-17T13:47:40.792Z,99780.92
2018-03-17T13:50:08.271Z,99777.37
2018-03-17T13:52:35.805Z,99775.05
2018-03-17T13:55:05.405Z,99777.55
2018-03-17T13:57:32.890Z,99786.45
2018-03-17T14:00:00.446Z,99782.36
2018-03-17T14:02:27.985Z,99780.44
2018-03-17T14:04:55.618Z,99775.58
2018-03-17T14:07:23.116Z,99783.48
2018-03-17T14:09:50.584Z,99780.41
2018-03-17T14:12:18.063Z,99783.55
2018-03-17T14:14:45.553Z,99779.83
2018-03-17T14:17:13.070Z,99776.95
2018-03-17T14:19:40.568Z,99781.03
2018-03-17T14:22:08.118Z,99776.88
2018-03-17T14:24:35.626Z,99791.34
2018-03-17T14:27:03.162Z,99777.16
2018-03-17T14:29:30.639Z,99783.98
2018-03-17T14:31:58.120Z,99776.27
2018-03-17T14:34:25.639Z,99778.30
2018-03-17T14:36:53.118Z,99788.31
2018-03-17T14:39:20.587Z,99798.11
2018-03-17T14:41:48.112Z,99792.63
2018-03-17T14:44:15.586Z,99795.57
2018-03-17T14:46:43.132Z,99793.50
2018-03-17T14:49:10.587Z,99796.63
2018-03-17T14:51:38.156Z,99803.55
2018-03-17T14:54:05.717Z,99786.55
2018-03-17T14:56:33.144Z,99785.78
2018-03-17T14:59:00.654Z,99779.92
2018-03-17T15:01:28.097Z,99771.93
2018-03-17T15:03:55.564Z,99779.97
2018-03-17T15:06:23.146Z,99786.17
2018-03-17T15:08:50.618Z,99774.36
2018-03-17T15:11:18.130Z,99773.99
2018-03-17T15:13:45.592Z,99779.39
2018-03-17T15:16:13.052Z,99775.08
2018-03-17T15:18:40.560Z,99781.01
2018-03-17T15:21:08.254Z,99772.67
2018-03-17T15:23:35.712Z,99780.01
2018-03-17T15:26:14.860Z,99774.52
2018-03-17T15:28:42.316Z,99781.98
2018-03-17T15:31:09.860Z,99786.89
2018-03-17T15:33:37.296Z,99783.41
2018-03-17T15:36:04.800Z,99775.51
2018-03-17T15:38:32.310Z,99773.23
2018-03-17T15:40:59.771Z,99784.01
2018-03-17T15:43:27.256Z,99788.31
2018-03-17T15:46:04.395Z,99783.20
2018-03-17T15:48:31.872Z,99776.20
2018-03-17T15:50:59.365Z,99776.94
2018-03-17T15:53:27.112Z,99779.22
2018-03-17T15:55:54.628Z,99779.00
2018-03-17T15:58:22.115Z,99784.48
2018-03-17T16:00:49.607Z,99785.00
2018-03-17T16:03:17.069Z,99788.59
2018-03-17T16:05:45.448Z,99780.17
2018-03-17T16:08:12.966Z,99784.25
2018-03-17T16:10:40.424Z,99790.38
2018-03-17T16:13:07.916Z,99799.45
2018-03-17T16:15:35.464Z,99791.05
2018-03-17T16:18:02.983Z,99791.67
2018-03-17T16:20:30.477Z,99799.84
2018-03-17T16:22:58.071Z,99803.48
2018-03-17T16:25:30.547Z,99797.27
2018-03-17T16:27:58.145Z,99805.71
2018-03-17T16:30:25.842Z,99805.63
2018-03-17T16:32:53.378Z,99805.84
2018-03-17T16:35:20.858Z,99807.53
2018-03-17T16:37:48.370Z,99809.94
2018-03-17T16:40:15.849Z,99807.42
2018-03-17T16:42:43.278Z,99810.33
2018-03-17T16:45:24.990Z,99826.55
2018-03-17T16:47:52.466Z,99821.15
2018-03-17T16:50:19.943Z,99824.34
2018-03-17T16:52:47.470Z,99831.06
2018-03-17T16:55:14.950Z,99825.56
2018-03-17T16:57:42.494Z,99819.47
2018-03-17T17:00:09.964Z,99834.27
2018-03-17T17:02:37.464Z,99832.76
2018-03-17T17:05:04.964Z,99822.64
2018-03-17T17:07:32.408Z,99835.56
2018-03-17T17:09:59.867Z,99829.14
2018-03-17T17:12:27.428Z,99841.77
2018-03-17T17:14:54.998Z,99836.16
2018-03-17T17:17:23.688Z,99833.26
2018-03-17T17:19:51.140Z,99838.86
2018-03-17T17:22:18.710Z,99839.52
2018-03-17T17:24:46.168Z,99841.95
2018-03-17T17:27:13.710Z,99844.65
2018-03-17T17:29:41.182Z,99840.45
2018-03-17T17:32:09.274Z,99843.35
2018-03-17T17:34:36.795Z,99856.71
2018-03-17T17:37:04.289Z,99848.30
2018-03-17T17:39:31.790Z,99843.63
2018-03-17T17:41:59.385Z,99840.08
2018-03-17T17:44:27.062Z,99843.20
2018-03-17T17:46:55.170Z,99843.89
2018-03-17T17:49:22.639Z,99841.81
2018-03-17T17:51:50.166Z,99845.92
2018-03-17T17:54:17.628Z,99845.00
2018-03-17T17:56:45.231Z,99845.72
2018-03-17T17:59:12.733Z,99855.13
2018-03-17T18:01:40.316Z,99855.32
2018-03-17T18:04:08.640Z,99850.92
2018-03-17T18:06:41.061Z,99859.80
2018-03-17T18:09:08.791Z,99861.08
2018-03-17T18:11:36.268Z,99853.90
2018-03-17T18:14:03.743Z,99856.98
2018-03-17T18:16:31.204Z,99868.41
2018-03-17T18:18:58.695Z,99871.58
2018-03-17T18:21:26.192Z,99869.07
2018-03-17T18:23:53.712Z,99875.47
2018-03-17T18:26:21.278Z,99870.27
2018-03-17T18:28:48.824Z,99869.80
2018-03-17T18:31:16.328Z,99873.11
2018-03-17T18:33:43.888Z,99877.11
2018-03-17T18:36:11.455Z,99877.58
2018-03-17T18:38:39.155Z,99873.48
2018-03-17T18:41:06.634Z,99876.88
2018-03-17T18:43:34.938Z,99883.27
2018-03-17T18:46:02.950Z,99880.38
2018-03-17T18:48:30.532Z,99891.49
2018-03-17T18:50:58.165Z,99890.67
2018-03-17T18:53:25.933Z,99886.79
2018-03-17T18:55:53.499Z,99894.20
2018-03-17T18:58:21.038Z,99896.07
2018-03-17T19:00:48.681Z,99901.17
2018-03-17T19:03:16.202Z,99897.69
2018-03-17T19:05:43.682Z,99902.68
2018-03-17T19:08:11.146Z,99899.61
2018-03-17T19:10:38.694Z,99898.00
2018-03-17T19:13:07.822Z,99896.49
2018-03-17T19:15:44.983Z,99902.28
2018-03-17T19:18:12.546Z,99900.48
2018-03-17T19:20:40.038Z,99905.38
2018-03-17T19:23:08.006Z,99905.06
2018-03-17T19:25:35.594Z,99894.29
2018-03-17T19:28:03.051Z,99903.70
2018-03-17T19:30:30.556Z,99909.06
2018-03-17T19:32:58.142Z,99902.66
2018-03-17T19:35:25.696Z,99895.80
2018-03-17T19:37:53.517Z,99906.77
2018-03-17T19:40:21.042Z,99905.67
2018-03-17T19:42:48.549Z,99895.70
2018-03-17T19:45:16.287Z,99899.17
2018-03-17T19:47:43.801Z,99895.58
2018-03-17T19:50:11.590Z,99901.08
2018-03-17T19:52:39.151Z,99908.36
2018-03-17T19:55:06.640Z,99896.15
2018-03-17T19:57:34.135Z,99903.06
2018-03-17T20:00:01.713Z,99900.14
2018-03-17T20:02:29.280Z,99908.76
2018-03-17T20:04:56.885Z,99910.73
2018-03-17T20:07:24.431Z,99899.66
2018-03-17T20:09:52.422Z,99900.66
2018-03-17T20:12:19.967Z,99907.69
2018-03-17T20:14:47.667Z,99904.57
2018-03-17T20:17:15.179Z,99908.47
2018-03-17T20:19:42.729Z,99907.16
2018-03-17T20:22:10.264Z,99899.27
2018-03-17T20:24:48.287Z,99907.56
2018-03-17T20:27:15.791Z,99910.34
2018-03-17T20:29:44.218Z,99902.25
2018-03-17T20:32:11.975Z,99907.84
2018-03-17T20:34:39.471Z,99911.83
2018-03-17T20:37:06.993Z,99915.56
2018-03-17T20:39:34.611Z,99917.63
2018-03-17T20:42:02.193Z,99915.32
2018-03-17T20:44:29.837Z,99911.42
2018-03-17T20:46:57.389Z,99910.55
2018-03-17T20:49:24.969Z,99903.02
2018-03-17T20:51:52.523Z,99911.63
2018-03-17T20:54:20.014Z,99904.93
2018-03-17T20:56:47.572Z,99900.42
2018-03-17T20:59:15.058Z,99914.34
2018-03-17T21:01:42.927Z,99910.63
2018-03-17T21:04:10.682Z,99909.23
2018-03-17T21:06:44.225Z,99913.52
2018-03-17T21:09:11.749Z,99911.83
2018-03-17T21:11:39.236Z,99906.16
2018-03-17T21:14:07.195Z,99913.95
2018-03-17T21:16:35.054Z,99914.06
2018-03-17T21:19:02.614Z,99906.27
2018-03-17T21:21:30.125Z,99916.34
2018-03-17T21:23:57.899Z,99908.03
2018-03-17T21:26:25.497Z,99917.65
2018-03-17T21:28:53.039Z,99910.84
2018-03-17T21:31:20.611Z,99912.13
2018-03-17T21:33:48.239Z,99913.12
2018-03-17T21:36:15.744Z,99911.75
2018-03-17T21:38:44.897Z,99908.44
2018-03-17T21:41:12.437Z,99900.03
2018-03-17T21:43:39.918Z,99905.09
2018-03-17T21:46:07.415Z,99902.28
2018-03-17T21:48:34.903Z,99907.47
2018-03-17T21:51:02.421Z,99900.24
2018-03-17T21:53:29.937Z,99903.68
2018-03-17T21:55:57.431Z,99901.84
2018-03-17T21:58:25.006Z,99892.14
2018-03-17T22:00:52.607Z,99903.59
2018-03-17T22:03:20.161Z,99892.06
2018-03-17T22:05:47.701Z,99893.79
2018-03-17T22:08:15.235Z,99883.20
2018-03-17T22:10:42.775Z,99901.27
2018-03-17T22:13:10.242Z,99894.67
2018-03-17T22:15:37.711Z,99883.78
2018-03-17T22:18:05.244Z,99883.99
2018-03-17T22:20:32.781Z,99891.17
2018-03-17T22:23:00.387Z,99890.77
2018-03-17T22:25:28.043Z,99886.67
2018-03-17T22:27:55.550Z,99890.86
2018-03-17T22:30:23.059Z,99894.94
2018-03-17T22:32:50.636Z,99892.14
2018-03-17T22:35:18.144Z,99897.75
2018-03-17T22:37:45.744Z,99898.56
2018-03-17T22:40:13.443Z,99892.87
2018-03-17T22:42:41.124Z,99897.77
2018-03-17T22:45:08.601Z,99892.56
2018-03-17T22:47:36.308Z,99890.19
2018-03-17T22:50:03.887Z,99895.08
2018-03-17T22:52:31.734Z,99894.58
2018-03-17T22:54:59.250Z,99897.64
2018-03-17T22:57:26.856Z,99902.66
2018-03-17T22:59:54.329Z,99900.66
2018-03-17T23:02:21.867Z,99897.05
2018-03-17T23:04:49.407Z,99903.86
2018-03-17T23:07:16.914Z,99910.06
2018-03-17T23:09:44.537Z,99897.05
2018-03-17T23:12:12.056Z,99914.05
2018-03-17T23:14:39.631Z,99908.44
2018-03-17T23:17:07.168Z,99907.03
2018-03-17T23:19:34.688Z,99912.45
2018-03-17T23:22:02.263Z,99912.75
2018-03-17T23:24:29.776Z,99917.36
2018-03-17T23:26:57.370Z,99910.88
2018-03-17T23:29:24.922Z,99931.77
2018-03-17T23:31:52.659Z,99916.16
2018-03-17T23:34:20.132Z,99920.77
2018-03-17T23:36:47.694Z,99919.66
2018-03-17T23:39:16.176Z,99919.46
2018-03-17T23:41:43.644Z,99927.53
2018-03-17T23:44:11.134Z,99920.25
2018-03-17T23:46:38.648Z,99915.34
2018-03-17T23:49:06.376Z,99930.95
2018-03-17T23:51:34.730Z,99929.84
2018-03-17T23:54:02.752Z,99923.74
2018-03-17T23:56:30.292Z,99931.16
2018-03-17T23:58:57.820Z,99920.76
